Time;durP1;ratioP1;P1;durP2;ratioP2;P2;SDS_P1;SDS_P2;PMS_P1;PMS_P2;Temp;Humidity;BMP_temperature;BMP_pressure;BME280_temperature;BME280_humidity;BME280_pressure;Samples;Min_cycle;Max_cycle;Signal;HPM_P1;HPM_P2
2023/07/15 00:00:52;;;;;;;;;;;17.80;98.00;;;;;;5113727;28;20446;-67
2023/07/15 00:03:19;;;;;;;;;;;17.90;97.90;;;;;;5113708;28;19998;-63
2023/07/15 00:05:46;;;;;;;;;;;18.00;97.80;;;;;;5113988;28;20360;-64
2023/07/15 00:08:13;;;;;;;;;;;18.00;97.60;;;;;;5113923;28;19912;-64
2023/07/15 00:10:41;;;;;;;;;;;18.20;97.70;;;;;;5113891;28;20379;-64
2023/07/15 00:13:18;;;;;;;;;;;18.20;97.50;;;;;;5114001;28;19907;-64
2023/07/15 00:15:47;;;;;;;;;;;18.30;97.50;;;;;;5113928;28;20373;-66
2023/07/15 00:18:17;;;;;;;;;;;18.40;97.40;;;;;;5113870;28;20421;-66
2023/07/15 00:20:44;;;;;;;;;;;18.50;97.30;;;;;;5113266;28;19915;-64
2023/07/15 00:23:17;;;;;;;;;;;18.50;97.10;;;;;;5095641;28;19949;-65
2023/07/15 00:25:44;;;;;;;;;;;18.60;96.90;;;;;;5112950;28;19987;-64
2023/07/15 00:28:10;;;;;;;;;;;18.60;96.70;;;;;;5113761;28;19908;-65
2023/07/15 00:30:37;;;;;;;;;;;18.70;96.60;;;;;;5113634;28;19907;-65
2023/07/15 00:33:06;;;;;;;;;;;18.70;96.40;;;;;;5113716;28;19907;-64
2023/07/15 00:35:32;;;;;;;;;;;18.80;96.50;;;;;;5113519;28;19952;-64
2023/07/15 00:37:59;;;;;;;;;;;18.90;96.40;;;;;;5113486;28;19915;-64
2023/07/15 00:40:27;;;;;;;;;;;19.00;96.30;;;;;;5113303;28;20387;-65
2023/07/15 00:43:11;;;;;;;;;;;19.00;96.20;;;;;;5113041;28;19930;-67
2023/07/15 00:45:37;;;;;;;;;;;19.10;96.30;;;;;;5113133;28;19919;-67
2023/07/15 00:48:28;;;;;;;;;;;19.10;96.10;;;;;;5112618;28;21333;-65
2023/07/15 00:50:55;;;;;;;;;;;19.20;95.90;;;;;;5113234;28;19907;-67
2023/07/15 00:53:22;;;;;;;;;;;19.30;95.70;;;;;;5112853;28;20385;-66
2023/07/15 00:55:48;;;;;;;;;;;19.40;95.60;;;;;;5113245;28;19912;-66
2023/07/15 00:58:15;;;;;;;;;;;19.40;95.20;;;;;;5113222;28;19983;-65
2023/07/15 01:00:42;;;;;;;;;;;19.50;95.00;;;;;;5113312;28;19993;-65
2023/07/15 01:03:09;;;;;;;;;;;19.60;94.90;;;;;;5113451;28;19907;-65
2023/07/15 01:05:35;;;;;;;;;;;19.80;94.50;;;;;;5113024;28;19926;-64
2023/07/15 01:08:03;;;;;;;;;;;19.90;94.80;;;;;;5113151;28;19993;-65
2023/07/15 01:10:30;;;;;;;;;;;19.90;94.30;;;;;;5112903;28;19998;-65
2023/07/15 01:12:56;;;;;;;;;;;20.10;94.10;;;;;;5113151;28;20364;-64
2023/07/15 01:15:23;;;;;;;;;;;20.10;94.20;;;;;;5112836;28;19931;-64
2023/07/15 01:17:49;;;;;;;;;;;20.20;93.80;;;;;;5113145;28;19930;-67
2023/07/15 01:20:17;;;;;;;;;;;20.40;93.80;;;;;;5113053;28;20352;-67
2023/07/15 01:22:43;;;;;;;;;;;20.50;93.20;;;;;;5094891;28;19915;-67
2023/07/15 01:25:10;;;;;;;;;;;20.60;93.00;;;;;;5113019;28;19915;-67
2023/07/15 01:27:36;;;;;;;;;;;20.60;93.00;;;;;;5112814;28;19915;-69
2023/07/15 01:30:04;;;;;;;;;;;20.70;92.70;;;;;;5112747;28;19931;-68
2023/07/15 01:32:30;;;;;;;;;;;20.70;92.60;;;;;;5112782;28;20380;-64
2023/07/15 01:34:57;;;;;;;;;;;20.80;92.70;;;;;;5112788;28;19908;-65
2023/07/15 01:37:24;;;;;;;;;;;20.90;92.30;;;;;;5114838;28;19969;-65
2023/07/15 01:39:50;;;;;;;;;;;21.00;92.20;;;;;;5098479;28;19904;-64
2023/07/15 01:42:17;;;;;;;;;;;21.00;92.40;;;;;;5116602;28;20288;-64
2023/07/15 01:44:43;;;;;;;;;;;21.20;92.20;;;;;;5116850;28;19919;-65
2023/07/15 01:47:10;;;;;;;;;;;21.30;92.20;;;;;;5098241;28;20424;-64
2023/07/15 01:49:37;;;;;;;;;;;21.50;91.80;;;;;;5116127;28;20013;-67
2023/07/15 01:52:04;;;;;;;;;;;21.60;91.40;;;;;;5116588;28;19908;-66
2023/07/15 01:54:30;;;;;;;;;;;21.60;90.80;;;;;;5116347;28;19908;-67
2023/07/15 01:56:57;;;;;;;;;;;21.60;90.60;;;;;;5116670;28;20276;-68
2023/07/15 01:59:24;;;;;;;;;;;21.70;90.20;;;;;;5116444;28;19915;-69
2023/07/15 02:01:50;;;;;;;;;;;21.80;90.00;;;;;;5116261;28;19912;-66
2023/07/15 02:04:17;;;;;;;;;;;21.90;89.60;;;;;;5116346;28;20006;-67
2023/07/15 02:06:44;;;;;;;;;;;22.00;89.30;;;;;;5116593;28;20387;-63
2023/07/15 02:09:10;;;;;;;;;;;22.10;87.80;;;;;;5115913;28;20011;-65
2023/07/15 02:11:37;;;;;;;;;;;22.10;87.20;;;;;;5116184;28;19907;-66
2023/07/15 02:14:04;;;;;;;;;;;22.30;86.50;;;;;;5116124;28;19915;-65
2023/07/15 02:16:30;;;;;;;;;;;22.30;87.00;;;;;;5116107;28;19953;-64
2023/07/15 02:18:57;;;;;;;;;;;22.30;85.80;;;;;;5116021;28;19968;-64
2023/07/15 02:21:25;;;;;;;;;;;22.40;85.10;;;;;;5116005;28;19999;-65
2023/07/15 02:23:54;;;;;;;;;;;22.40;85.30;;;;;;5116135;28;19912;-64
2023/07/15 02:26:21;;;;;;;;;;;22.40;83.90;;;;;;5116486;28;19918;-64
2023/07/15 02:28:48;;;;;;;;;;;22.30;83.30;;;;;;5116045;28;19946;-64
2023/07/15 02:31:14;;;;;;;;;;;22.30;84.60;;;;;;5115752;28;19907;-65
2023/07/15 02:33:41;;;;;;;;;;;22.40;84.40;;;;;;5115710;28;19911;-64
2023/07/15 02:36:08;;;;;;;;;;;22.60;84.50;;;;;;5115674;28;19939;-65
2023/07/15 02:38:35;;;;;;;;;;;22.70;82.60;;;;;;5115736;28;19915;-64
2023/07/15 02:41:01;;;;;;;;;;;22.80;83.20;;;;;;5115533;28;19915;-65
2023/07/15 02:43:28;;;;;;;;;;;23.00;83.20;;;;;;5115389;28;20300;-66
2023/07/15 02:45:56;;;;;;;;;;;23.00;82.50;;;;;;5115620;28;19908;-65
2023/07/15 02:48:24;;;;;;;;;;;23.10;82.40;;;;;;5114498;28;19965;-64
2023/07/15 02:50:56;;;;;;;;;;;23.20;82.00;;;;;;5115387;28;20336;-65
2023/07/15 02:53:23;;;;;;;;;;;23.30;81.70;;;;;;5115528;28;19912;-64
2023/07/15 02:55:52;;;;;;;;;;;23.50;81.90;;;;;;5115657;28;20276;-65
2023/07/15 02:58:19;;;;;;;;;;;23.80;80.80;;;;;;5115466;28;20012;-65
2023/07/15 03:00:46;;;;;;;;;;;24.10;79.30;;;;;;5115420;28;20374;-63
2023/07/15 03:03:12;;;;;;;;;;;24.70;78.40;;;;;;5115383;28;19953;-65
2023/07/15 03:05:39;;;;;;;;;;;25.30;75.10;;;;;;5115268;28;19920;-66
2023/07/15 03:08:06;;;;;;;;;;;25.80;72.60;;;;;;5115055;28;20364;-67
2023/07/15 03:10:32;;;;;;;;;;;26.00;71.40;;;;;;5114798;28;19915;-66
2023/07/15 03:12:59;;;;;;;;;;;26.10;69.90;;;;;;5115015;28;19915;-66
2023/07/15 03:15:25;;;;;;;;;;;25.90;68.40;;;;;;5115020;28;20356;-63
2023/07/15 03:17:52;;;;;;;;;;;25.80;68.10;;;;;;5115005;28;20328;-66
2023/07/15 03:20:22;;;;;;;;;;;26.00;68.00;;;;;;5115120;28;19995;-67
2023/07/15 03:22:49;;;;;;;;;;;26.30;66.70;;;;;;5115175;28;19999;-70
2023/07/15 03:25:16;;;;;;;;;;;26.40;66.80;;;;;;5114977;28;19970;-67
2023/07/15 03:27:43;;;;;;;;;;;26.10;66.60;;;;;;5114693;28;20002;-67
2023/07/15 03:30:10;;;;;;;;;;;25.90;65.80;;;;;;5114829;28;19908;-68
2023/07/15 03:32:41;;;;;;;;;;;25.80;65.40;;;;;;5114799;28;19930;-68
2023/07/15 03:35:12;;;;;;;;;;;25.70;66.00;;;;;;5114719;28;19959;-64
2023/07/15 03:37:41;;;;;;;;;;;26.10;66.10;;;;;;5114472;28;20372;-65
2023/07/15 03:40:08;;;;;;;;;;;26.30;65.30;;;;;;5114222;28;19908;-66
2023/07/15 03:42:35;;;;;;;;;;;27.10;64.00;;;;;;5114473;28;20380;-66
2023/07/15 03:45:02;;;;;;;;;;;28.20;62.80;;;;;;5114570;28;19997;-65
2023/07/15 03:47:28;;;;;;;;;;;29.20;61.20;;;;;;5114426;28;19908;-66
2023/07/15 03:49:55;;;;;;;;;;;30.10;59.70;;;;;;5114507;28;19908;-65
2023/07/15 03:52:22;;;;;;;;;;;30.10;58.10;;;;;;5114337;28;19915;-68
2023/07/15 03:54:48;;;;;;;;;;;30.00;57.50;;;;;;5114204;28;19911;-69
2023/07/15 03:57:15;;;;;;;;;;;30.10;57.60;;;;;;5114135;28;19912;-65
2023/07/15 03:59:42;;;;;;;;;;;30.10;56.70;;;;;;5113805;28;19917;-67
2023/07/15 04:02:08;;;;;;;;;;;30.40;56.40;;;;;;5113602;28;20272;-67
2023/07/15 04:04:35;;;;;;;;;;;30.10;56.40;;;;;;5113692;28;19922;-65
2023/07/15 04:07:01;;;;;;;;;;;29.90;56.40;;;;;;5114052;28;19915;-65
2023/07/15 04:09:28;;;;;;;;;;;30.60;56.80;;;;;;5113994;28;19908;-66
2023/07/15 04:11:55;;;;;;;;;;;30.60;55.40;;;;;;5113920;28;19908;-65
2023/07/15 04:14:22;;;;;;;;;;;30.30;55.70;;;;;;5113970;28;19908;-64
2023/07/15 04:16:49;;;;;;;;;;;29.90;56.00;;;;;;5113955;28;20007;-65
2023/07/15 04:19:16;;;;;;;;;;;29.70;56.20;;;;;;5113674;28;19914;-64
2023/07/15 04:21:42;;;;;;;;;;;28.70;56.90;;;;;;5113790;28;19912;-64
2023/07/15 04:24:09;;;;;;;;;;;27.40;58.70;;;;;;5113683;28;19919;-64
2023/07/15 04:26:35;;;;;;;;;;;26.50;60.20;;;;;;5113571;28;19908;-65
2023/07/15 04:29:03;;;;;;;;;;;25.70;61.50;;;;;;5113691;28;19908;-63
2023/07/15 04:31:29;;;;;;;;;;;25.10;62.40;;;;;;5113645;28;19908;-64
2023/07/15 04:33:56;;;;;;;;;;;24.70;62.60;;;;;;5113466;28;20289;-64
2023/07/15 04:36:23;;;;;;;;;;;24.50;63.50;;;;;;5113582;28;20006;-66
2023/07/15 04:38:49;;;;;;;;;;;24.40;64.10;;;;;;5095115;28;20010;-65
2023/07/15 04:41:16;;;;;;;;;;;24.50;64.50;;;;;;5113215;28;19908;-73
2023/07/15 04:43:43;;;;;;;;;;;24.40;64.20;;;;;;5113236;28;19923;-65
2023/07/15 04:46:09;;;;;;;;;;;24.40;64.30;;;;;;5113501;28;19908;-65
2023/07/15 04:48:36;;;;;;;;;;;24.10;64.60;;;;;;5113515;28;19986;-69
2023/07/15 04:51:06;;;;;;;;;;;24.00;64.70;;;;;;5095112;28;19932;-64
2023/07/15 04:53:33;;;;;;;;;;;23.90;65.30;;;;;;5094998;28;19954;-65
2023/07/15 04:56:00;;;;;;;;;;;23.90;65.50;;;;;;5113506;28;19908;-65
2023/07/15 04:58:26;;;;;;;;;;;23.90;65.80;;;;;;5113167;28;19908;-66
2023/07/15 05:00:53;;;;;;;;;;;23.90;65.90;;;;;;5113250;28;19908;-69
2023/07/15 05:03:20;;;;;;;;;;;23.80;66.00;;;;;;5113333;28;19924;-65
2023/07/15 05:05:47;;;;;;;;;;;23.70;66.00;;;;;;5113195;28;19916;-65
2023/07/15 05:08:18;;;;;;;;;;;23.90;66.10;;;;;;5113241;28;20253;-66
2023/07/15 05:10:46;;;;;;;;;;;23.90;66.60;;;;;;5113084;28;20326;-65
2023/07/15 05:13:13;;;;;;;;;;;24.00;66.40;;;;;;5098583;28;19960;-65
2023/07/15 05:15:40;;;;;;;;;;;24.00;67.10;;;;;;5099536;28;20391;-66
2023/07/15 05:18:06;;;;;;;;;;;24.00;66.00;;;;;;5117542;28;20056;-65
2023/07/15 05:20:33;;;;;;;;;;;24.10;66.20;;;;;;5117331;28;20373;-67
2023/07/15 05:23:01;;;;;;;;;;;24.10;66.20;;;;;;5117261;28;19908;-71
2023/07/15 05:25:28;;;;;;;;;;;24.20;66.30;;;;;;5117382;28;20356;-69
2023/07/15 05:27:56;;;;;;;;;;;24.10;66.00;;;;;;5098841;28;19992;-65
2023/07/15 05:30:23;;;;;;;;;;;24.10;66.30;;;;;;5117096;28;19915;-65
2023/07/15 05:32:59;;;;;;;;;;;24.00;66.30;;;;;;5117050;28;19908;-65
2023/07/15 05:35:25;;;;;;;;;;;24.00;66.20;;;;;;5098771;28;19908;-64
2023/07/15 05:37:52;;;;;;;;;;;23.90;66.30;;;;;;5117008;28;19919;-64
2023/07/15 05:40:19;;;;;;;;;;;23.80;66.30;;;;;;5098733;28;19914;-70
2023/07/15 05:42:46;;;;;;;;;;;23.70;66.50;;;;;;5116859;28;19963;-63
2023/07/15 05:45:13;;;;;;;;;;;23.70;66.50;;;;;;5116688;28;19916;-66
2023/07/15 05:47:39;;;;;;;;;;;23.90;66.50;;;;;;5116768;28;19911;-64
2023/07/15 05:50:07;;;;;;;;;;;23.90;66.50;;;;;;5116814;28;19953;-64
2023/07/15 05:52:34;;;;;;;;;;;23.90;66.30;;;;;;5116689;28;19912;-66
2023/07/15 05:55:00;;;;;;;;;;;24.00;66.90;;;;;;5116882;28;19983;-69
2023/07/15 05:57:27;;;;;;;;;;;24.00;66.80;;;;;;5116272;28;20380;-69
2023/07/15 05:59:54;;;;;;;;;;;24.00;66.80;;;;;;5116540;28;19912;-66
2023/07/15 06:02:20;;;;;;;;;;;23.90;67.10;;;;;;5116623;28;19908;-67
2023/07/15 06:04:47;;;;;;;;;;;24.10;66.80;;;;;;5116361;28;19977;-66
2023/07/15 06:07:13;;;;;;;;;;;24.20;66.50;;;;;;5116208;28;19908;-63
2023/07/15 06:09:40;;;;;;;;;;;24.30;66.50;;;;;;5116353;28;20355;-64
2023/07/15 06:12:07;;;;;;;;;;;24.40;66.40;;;;;;5116319;28;19914;-66
2023/07/15 06:14:33;;;;;;;;;;;24.50;66.40;;;;;;5116496;28;19915;-66
2023/07/15 06:17:00;;;;;;;;;;;24.70;66.00;;;;;;5116401;28;19915;-64
2023/07/15 06:19:27;;;;;;;;;;;24.90;65.90;;;;;;5116118;28;20353;-66
2023/07/15 06:21:54;;;;;;;;;;;24.80;65.40;;;;;;5115966;28;19915;-67
2023/07/15 06:24:20;;;;;;;;;;;24.60;65.70;;;;;;5114923;28;19960;-65
2023/07/15 06:26:47;;;;;;;;;;;24.30;65.90;;;;;;5097773;28;19908;-66
2023/07/15 06:29:14;;;;;;;;;;;23.90;66.70;;;;;;5116048;28;19907;-64
2023/07/15 06:31:41;;;;;;;;;;;23.50;66.90;;;;;;5115911;28;19908;-65
2023/07/15 06:34:07;;;;;;;;;;;23.20;67.40;;;;;;5115687;28;20379;-65
2023/07/15 06:36:35;;;;;;;;;;;23.00;68.10;;;;;;5115856;28;19998;-65
2023/07/15 06:39:02;;;;;;;;;;;22.80;68.50;;;;;;5115941;28;19915;-65
2023/07/15 06:41:29;;;;;;;;;;;22.60;69.00;;;;;;5115573;28;19961;-63
2023/07/15 06:43:56;;;;;;;;;;;22.50;69.40;;;;;;5097117;28;19949;-65
2023/07/15 06:46:25;;;;;;;;;;;22.30;69.90;;;;;;5115870;28;19908;-65
2023/07/15 06:48:52;;;;;;;;;;;22.10;70.10;;;;;;5098246;28;19914;-65
2023/07/15 06:51:20;;;;;;;;;;;22.00;70.60;;;;;;5097259;28;19908;-65
2023/07/15 06:53:47;;;;;;;;;;;21.80;70.80;;;;;;5115321;28;19912;-65
2023/07/15 06:56:13;;;;;;;;;;;21.70;71.10;;;;;;5097006;28;19908;-67
2023/07/15 06:58:40;;;;;;;;;;;21.60;71.60;;;;;;5115833;28;19908;-64
2023/07/15 07:01:07;;;;;;;;;;;21.40;71.80;;;;;;5097228;28;19915;-67
2023/07/15 07:03:34;;;;;;;;;;;21.40;72.10;;;;;;5115477;28;19912;-66
2023/07/15 07:06:01;;;;;;;;;;;21.20;72.50;;;;;;5114969;28;20311;-66
2023/07/15 07:08:28;;;;;;;;;;;21.10;72.80;;;;;;5115134;28;19912;-66
2023/07/15 07:10:55;;;;;;;;;;;20.90;73.10;;;;;;5115161;28;19907;-66
2023/07/15 07:13:21;;;;;;;;;;;20.80;73.50;;;;;;5115169;28;19954;-64
2023/07/15 07:15:48;;;;;;;;;;;20.70;73.70;;;;;;5115211;28;20388;-71
2023/07/15 07:18:15;;;;;;;;;;;20.60;74.20;;;;;;5096703;28;19908;-65
2023/07/15 07:20:45;;;;;;;;;;;20.50;74.60;;;;;;5115082;28;19908;-67
2023/07/15 07:23:18;;;;;;;;;;;20.40;74.80;;;;;;5114654;28;19964;-65
2023/07/15 07:25:45;;;;;;;;;;;20.30;75.30;;;;;;5096242;28;20006;-66
2023/07/15 07:28:12;;;;;;;;;;;20.10;75.80;;;;;;5115154;28;19915;-68
2023/07/15 07:30:40;;;;;;;;;;;20.00;76.40;;;;;;5115056;28;19911;-66
2023/07/15 07:33:07;;;;;;;;;;;19.90;76.40;;;;;;5096469;28;19914;-67
2023/07/15 07:35:34;;;;;;;;;;;19.90;76.70;;;;;;5114156;28;19908;-64
2023/07/15 07:38:01;;;;;;;;;;;19.70;77.60;;;;;;5114754;28;19947;-65
2023/07/15 07:40:28;;;;;;;;;;;19.70;77.60;;;;;;5114389;28;19908;-65
2023/07/15 07:42:54;;;;;;;;;;;19.60;77.80;;;;;;5114458;28;20272;-64
2023/07/15 07:45:21;;;;;;;;;;;19.60;78.00;;;;;;5114353;28;20371;-64
2023/07/15 07:47:48;;;;;;;;;;;19.50;78.70;;;;;;5114253;28;19951;-66
2023/07/15 07:50:15;;;;;;;;;;;19.40;79.90;;;;;;5114066;28;20342;-66
2023/07/15 07:52:42;;;;;;;;;;;19.30;80.30;;;;;;5114335;28;19915;-66
2023/07/15 07:55:08;;;;;;;;;;;19.10;80.80;;;;;;5114430;28;19908;-69
2023/07/15 07:57:36;;;;;;;;;;;19.00;81.30;;;;;;5114251;28;19915;-69
2023/07/15 08:00:04;;;;;;;;;;;18.90;81.70;;;;;;5113825;28;19962;-67
2023/07/15 08:02:31;;;;;;;;;;;18.80;82.70;;;;;;5114060;28;19908;-65
2023/07/15 08:04:57;;;;;;;;;;;18.70;83.60;;;;;;5114048;28;19923;-65
2023/07/15 08:07:24;;;;;;;;;;;18.60;84.00;;;;;;5114101;28;20372;-64
2023/07/15 08:09:51;;;;;;;;;;;18.50;84.10;;;;;;5113704;28;19908;-65
2023/07/15 08:12:18;;;;;;;;;;;18.40;84.90;;;;;;5114056;28;19914;-65
2023/07/15 08:14:44;;;;;;;;;;;18.40;84.70;;;;;;5114004;28;19908;-66
2023/07/15 08:17:11;;;;;;;;;;;18.30;84.70;;;;;;5113868;28;19908;-65
2023/07/15 08:19:37;;;;;;;;;;;18.30;84.20;;;;;;5113892;28;19952;-66
2023/07/15 08:22:04;;;;;;;;;;;18.20;84.70;;;;;;5113683;28;20389;-64
2023/07/15 08:24:31;;;;;;;;;;;18.20;85.10;;;;;;5095620;28;19927;-66
2023/07/15 08:27:01;;;;;;;;;;;18.20;85.50;;;;;;5114267;28;19911;-64
2023/07/15 08:29:27;;;;;;;;;;;18.20;86.30;;;;;;5095371;28;19915;-67
2023/07/15 08:31:54;;;;;;;;;;;18.10;86.10;;;;;;5113526;28;20289;-65
2023/07/15 08:34:21;;;;;;;;;;;18.00;86.30;;;;;;5113610;28;19908;-64
2023/07/15 08:36:48;;;;;;;;;;;17.90;86.80;;;;;;5095352;28;19908;-65
2023/07/15 08:39:15;;;;;;;;;;;17.90;86.90;;;;;;5113481;28;20339;-65
2023/07/15 08:41:42;;;;;;;;;;;17.90;87.30;;;;;;5113168;28;19911;-65
2023/07/15 08:44:10;;;;;;;;;;;17.80;87.30;;;;;;5113379;28;19963;-64
2023/07/15 08:46:38;;;;;;;;;;;17.80;86.50;;;;;;5094774;28;20016;-64
2023/07/15 08:49:04;;;;;;;;;;;17.90;87.40;;;;;;5113171;28;19908;-65
2023/07/15 08:51:33;;;;;;;;;;;17.90;86.90;;;;;;5113336;28;19908;-65
2023/07/15 08:54:10;;;;;;;;;;;17.80;86.70;;;;;;5113293;28;20006;-65
2023/07/15 08:56:38;;;;;;;;;;;17.80;87.00;;;;;;5113423;28;19958;-64
2023/07/15 08:59:06;;;;;;;;;;;17.70;87.00;;;;;;5113331;28;19916;-68
2023/07/15 09:01:35;;;;;;;;;;;17.70;87.60;;;;;;5113335;28;19915;-64
2023/07/15 09:04:01;;;;;;;;;;;17.60;87.80;;;;;;5113222;28;19916;-65
2023/07/15 09:06:28;;;;;;;;;;;17.70;88.20;;;;;;5095000;28;19908;-65
2023/07/15 09:08:56;;;;;;;;;;;17.50;88.80;;;;;;5113456;28;20328;-68
2023/07/15 09:11:22;;;;;;;;;;;17.50;88.60;;;;;;5095030;28;19957;-65
2023/07/15 09:13:49;;;;;;;;;;;17.40;89.30;;;;;;5094803;28;19914;-67
2023/07/15 09:16:17;;;;;;;;;;;17.40;90.10;;;;;;5113445;28;20008;-69
2023/07/15 09:18:44;;;;;;;;;;;17.30;90.20;;;;;;5094994;28;19911;-65
2023/07/15 09:21:14;;;;;;;;;;;17.20;90.30;;;;;;5112765;28;19911;-66
2023/07/15 09:23:47;;;;;;;;;;;17.10;90.40;;;;;;5113040;28;19935;-67
2023/07/15 09:26:14;;;;;;;;;;;17.10;90.70;;;;;;5113520;28;19993;-66
2023/07/15 09:28:43;;;;;;;;;;;17.00;90.90;;;;;;5094774;28;19908;-65
2023/07/15 09:31:10;;;;;;;;;;;17.00;90.60;;;;;;5113214;28;20364;-66
2023/07/15 09:33:42;;;;;;;;;;;17.00;91.00;;;;;;5112849;28;19912;-65
2023/07/15 09:36:09;;;;;;;;;;;16.90;91.00;;;;;;5112791;28;19908;-64
2023/07/15 09:38:39;;;;;;;;;;;16.90;91.10;;;;;;5113038;28;19965;-65
2023/07/15 09:41:09;;;;;;;;;;;16.90;91.10;;;;;;5094653;28;19943;-63
2023/07/15 09:43:48;;;;;;;;;;;16.80;91.20;;;;;;5112390;28;19923;-63
2023/07/15 09:46:22;;;;;;;;;;;16.70;90.60;;;;;;5112919;28;19912;-64
2023/07/15 09:48:50;;;;;;;;;;;16.80;90.70;;;;;;5095159;28;19950;-65
2023/07/15 09:51:21;;;;;;;;;;;16.80;90.40;;;;;;5113250;28;19908;-64
2023/07/15 09:53:52;;;;;;;;;;;16.80;90.70;;;;;;5094770;28;20413;-63
2023/07/15 09:56:22;;;;;;;;;;;16.80;90.40;;;;;;5112883;28;19907;-66
2023/07/15 09:58:50;;;;;;;;;;;16.80;90.30;;;;;;5115111;28;19961;-66
2023/07/15 10:01:22;;;;;;;;;;;16.80;90.50;;;;;;5116645;28;20432;-64
2023/07/15 10:04:09;;;;;;;;;;;16.80;90.20;;;;;;5098229;28;19969;-64
2023/07/15 10:06:36;;;;;;;;;;;16.80;90.70;;;;;;5116141;28;19946;-66
2023/07/15 10:09:04;;;;;;;;;;;16.80;90.70;;;;;;5116418;28;19914;-65
2023/07/15 10:11:33;;;;;;;;;;;16.80;90.70;;;;;;5116249;28;20245;-64
2023/07/15 10:14:00;;;;;;;;;;;16.80;91.00;;;;;;5116283;28;20214;-65
2023/07/15 10:16:27;;;;;;;;;;;16.80;91.20;;;;;;5116625;28;19907;-67
2023/07/15 10:18:56;;;;;;;;;;;16.80;91.40;;;;;;5116410;28;19934;-64
2023/07/15 10:21:23;;;;;;;;;;;16.80;91.40;;;;;;5116341;28;19912;-64
2023/07/15 10:24:05;;;;;;;;;;;16.90;91.60;;;;;;5116251;28;19915;-65
2023/07/15 10:26:32;;;;;;;;;;;16.90;91.10;;;;;;5116138;28;19912;-66
2023/07/15 10:28:59;;;;;;;;;;;16.90;90.90;;;;;;5116282;28;20375;-65
2023/07/15 10:31:26;;;;;;;;;;;16.90;91.00;;;;;;5116241;28;19953;-64
2023/07/15 10:33:56;;;;;;;;;;;16.90;91.10;;;;;;5116076;28;20423;-65
2023/07/15 10:36:35;;;;;;;;;;;16.90;91.00;;;;;;5097780;28;19914;-67
2023/07/15 10:39:18;;;;;;;;;;;16.90;90.70;;;;;;5115985;28;19940;-65
2023/07/15 10:41:52;;;;;;;;;;;16.90;90.90;;;;;;5115796;28;19957;-67
2023/07/15 10:44:19;;;;;;;;;;;17.00;90.80;;;;;;5115891;28;19916;-67
2023/07/15 10:47:01;;;;;;;;;;;16.90;90.90;;;;;;5115590;28;20276;-64
2023/07/15 10:49:28;;;;;;;;;;;16.90;90.50;;;;;;5115541;28;19908;-67
2023/07/15 10:51:55;;;;;;;;;;;16.90;90.40;;;;;;5115615;28;19908;-65
2023/07/15 10:54:28;;;;;;;;;;;16.90;90.30;;;;;;5115852;28;20394;-66
2023/07/15 10:56:55;;;;;;;;;;;17.00;90.40;;;;;;5115729;28;19908;-64
2023/07/15 10:59:24;;;;;;;;;;;17.00;90.70;;;;;;5115480;28;19908;-64
2023/07/15 11:01:51;;;;;;;;;;;17.00;90.50;;;;;;5097513;28;20272;-65
2023/07/15 11:04:21;;;;;;;;;;;17.10;90.20;;;;;;5115404;28;19916;-64
2023/07/15 11:06:48;;;;;;;;;;;17.10;90.70;;;;;;5115189;28;19907;-64
2023/07/15 11:09:15;;;;;;;;;;;17.10;90.90;;;;;;5096150;28;19966;-63
2023/07/15 11:11:42;;;;;;;;;;;17.20;90.10;;;;;;5115217;28;19912;-63
2023/07/15 11:14:28;;;;;;;;;;;17.20;89.90;;;;;;5115130;28;20375;-64
2023/07/15 11:16:56;;;;;;;;;;;17.20;90.30;;;;;;5115224;28;19908;-63
2023/07/15 11:19:23;;;;;;;;;;;17.20;90.60;;;;;;5096803;28;20253;-65
2023/07/15 11:21:53;;;;;;;;;;;17.20;90.20;;;;;;5115053;28;19915;-66
2023/07/15 11:24:23;;;;;;;;;;;17.10;90.30;;;;;;5114878;28;20356;-65
2023/07/15 11:26:50;;;;;;;;;;;17.20;90.10;;;;;;5115028;28;19961;-62
2023/07/15 11:29:18;;;;;;;;;;;17.20;90.70;;;;;;5114524;28;19939;-63
2023/07/15 11:31:46;;;;;;;;;;;17.10;90.80;;;;;;5114599;28;19937;-63
2023/07/15 11:34:15;;;;;;;;;;;17.10;90.90;;;;;;5114916;28;19943;-65
2023/07/15 11:36:42;;;;;;;;;;;17.00;90.90;;;;;;5114840;28;20183;-67
2023/07/15 11:39:10;;;;;;;;;;;16.90;90.90;;;;;;5114550;28;19977;-64
2023/07/15 11:41:37;;;;;;;;;;;16.90;91.20;;;;;;5114486;28;19907;-67
2023/07/15 11:44:14;;;;;;;;;;;16.80;91.60;;;;;;5114602;28;19915;-62
2023/07/15 11:46:42;;;;;;;;;;;16.70;91.70;;;;;;5114504;28;19950;-66
2023/07/15 11:49:09;;;;;;;;;;;16.60;91.90;;;;;;5114750;28;20360;-64
2023/07/15 11:51:36;;;;;;;;;;;16.50;92.10;;;;;;5114550;28;19908;-64
2023/07/15 11:54:08;;;;;;;;;;;16.40;92.30;;;;;;5115258;28;19957;-64
2023/07/15 11:56:37;;;;;;;;;;;16.30;92.50;;;;;;5115124;28;20360;-64
2023/07/15 11:59:07;;;;;;;;;;;16.20;92.60;;;;;;5114452;28;19912;-64
2023/07/15 12:01:36;;;;;;;;;;;16.10;92.90;;;;;;5114115;28;19912;-64
2023/07/15 12:04:11;;;;;;;;;;;16.20;92.50;;;;;;5114252;28;19967;-64
2023/07/15 12:06:45;;;;;;;;;;;16.10;92.60;;;;;;5114216;28;20387;-64
2023/07/15 12:09:12;;;;;;;;;;;16.00;92.40;;;;;;5113847;28;19904;-65
2023/07/15 12:11:39;;;;;;;;;;;16.00;92.30;;;;;;5114456;28;20303;-68
2023/07/15 12:14:07;;;;;;;;;;;16.10;91.90;;;;;;5113963;28;20386;-64
2023/07/15 12:16:34;;;;;;;;;;;16.20;92.00;;;;;;5113228;28;20356;-67
2023/07/15 12:19:01;;;;;;;;;;;16.20;92.00;;;;;;5113176;28;20387;-65
2023/07/15 12:21:28;;;;;;;;;;;16.20;92.20;;;;;;5112874;28;19908;-66
2023/07/15 12:23:56;;;;;;;;;;;16.20;92.20;;;;;;5113745;28;19915;-64
2023/07/15 12:26:22;;;;;;;;;;;16.20;92.60;;;;;;5113668;28;19908;-64
2023/07/15 12:28:49;;;;;;;;;;;16.10;92.70;;;;;;5113766;28;19908;-66
2023/07/15 12:31:17;;;;;;;;;;;16.20;93.10;;;;;;5113645;28;19908;-65
2023/07/15 12:33:44;;;;;;;;;;;16.10;93.00;;;;;;5113833;28;19908;-65
2023/07/15 12:36:12;;;;;;;;;;;16.10;93.40;;;;;;5113751;28;19919;-65
2023/07/15 12:38:39;;;;;;;;;;;16.10;93.40;;;;;;5113638;28;19912;-65
2023/07/15 12:41:06;;;;;;;;;;;16.10;93.40;;;;;;5113611;28;19908;-63
2023/07/15 12:43:33;;;;;;;;;;;16.10;93.50;;;;;;5113409;28;19920;-64
2023/07/15 12:46:03;;;;;;;;;;;16.10;93.50;;;;;;5113539;28;19922;-63
2023/07/15 12:48:30;;;;;;;;;;;16.20;93.70;;;;;;5113538;28;19990;-63
2023/07/15 12:50:57;;;;;;;;;;;16.20;93.50;;;;;;5113541;28;19908;-65
2023/07/15 12:53:24;;;;;;;;;;;16.10;92.90;;;;;;5113525;28;19934;-64
2023/07/15 12:55:52;;;;;;;;;;;16.20;92.80;;;;;;5113543;28;19914;-65
2023/07/15 12:58:19;;;;;;;;;;;16.20;92.50;;;;;;5113285;28;19907;-64
2023/07/15 13:00:46;;;;;;;;;;;16.20;92.50;;;;;;5113710;28;19916;-65
2023/07/15 13:03:13;;;;;;;;;;;16.30;92.50;;;;;;5113514;28;20308;-66
2023/07/15 13:05:40;;;;;;;;;;;16.30;92.50;;;;;;5113179;28;19920;-65
2023/07/15 13:08:06;;;;;;;;;;;16.30;92.50;;;;;;5113173;28;19908;-66
2023/07/15 13:10:33;;;;;;;;;;;16.30;92.80;;;;;;5112815;28;20006;-64
2023/07/15 13:13:00;;;;;;;;;;;16.30;92.50;;;;;;5113080;28;19908;-65
2023/07/15 13:15:26;;;;;;;;;;;16.30;92.30;;;;;;5113237;28;20339;-64
2023/07/15 13:17:53;;;;;;;;;;;16.30;92.80;;;;;;5113139;28;19912;-64
2023/07/15 13:20:20;;;;;;;;;;;16.30;93.10;;;;;;5094877;28;19908;-64
2023/07/15 13:22:46;;;;;;;;;;;16.30;93.30;;;;;;5112981;28;19991;-64
2023/07/15 13:25:13;;;;;;;;;;;16.20;93.20;;;;;;5113032;28;19927;-65
2023/07/15 13:27:40;;;;;;;;;;;16.20;93.50;;;;;;5113602;28;19915;-66
2023/07/15 13:30:07;;;;;;;;;;;16.10;93.20;;;;;;5113257;28;19908;-64
2023/07/15 13:32:33;;;;;;;;;;;16.10;93.50;;;;;;5113647;28;19911;-66
2023/07/15 13:35:00;;;;;;;;;;;16.10;93.60;;;;;;5117178;28;20276;-64
2023/07/15 13:37:27;;;;;;;;;;;16.00;93.80;;;;;;5117044;28;20372;-65
2023/07/15 13:39:53;;;;;;;;;;;16.10;93.30;;;;;;5117051;28;19908;-67
2023/07/15 13:42:21;;;;;;;;;;;16.00;93.60;;;;;;5117301;28;19981;-67
2023/07/15 13:44:49;;;;;;;;;;;16.10;93.40;;;;;;5116802;28;19915;-67
2023/07/15 13:47:15;;;;;;;;;;;16.00;93.00;;;;;;5116963;28;19908;-68
2023/07/15 13:49:42;;;;;;;;;;;16.10;92.70;;;;;;5116852;28;19908;-66
2023/07/15 13:52:10;;;;;;;;;;;16.10;92.20;;;;;;5117228;28;20252;-65
2023/07/15 13:54:36;;;;;;;;;;;16.20;92.60;;;;;;5116822;28;19939;-64
2023/07/15 13:57:03;;;;;;;;;;;16.20;92.50;;;;;;5116938;28;20348;-64
2023/07/15 13:59:30;;;;;;;;;;;16.10;92.30;;;;;;5116378;28;19908;-64
2023/07/15 14:01:59;;;;;;;;;;;16.20;92.10;;;;;;5116596;28;19911;-65
2023/07/15 14:04:26;;;;;;;;;;;16.20;91.80;;;;;;5116451;28;19916;-64
2023/07/15 14:06:52;;;;;;;;;;;16.30;91.50;;;;;;5116636;28;19908;-64
2023/07/15 14:09:19;;;;;;;;;;;16.20;91.50;;;;;;5116280;28;19908;-66
2023/07/15 14:11:46;;;;;;;;;;;16.30;91.40;;;;;;5116670;28;19908;-66
2023/07/15 14:14:16;;;;;;;;;;;16.30;91.40;;;;;;5116371;28;19914;-67
2023/07/15 14:16:42;;;;;;;;;;;16.30;91.30;;;;;;5116359;28;19907;-65
2023/07/15 14:19:09;;;;;;;;;;;16.30;91.40;;;;;;5116503;28;19953;-63